sensor_id;sensor_type;location;lat;lon;timestamp;P1;durP1;ratioP1;P2;durP2;ratioP2
64199;SDS011;50516;52.272;5.136;2024-03-23T00:53:53;27.88;;;7.70;;
64199;SDS011;50516;52.272;5.136;2024-03-23T00:56:18;21.58;;;7.93;;
64199;SDS011;50516;52.272;5.136;2024-03-23T00:58:44;33.97;;;7.80;;
64199;SDS011;50516;52.272;5.136;2024-03-23T01:01:09;26.45;;;7.63;;
64199;SDS011;50516;52.272;5.136;2024-03-23T01:03:34;30.75;;;8.25;;
64199;SDS011;50516;52.272;5.136;2024-03-23T01:06:02;21.13;;;7.85;;
64199;SDS011;50516;52.272;5.136;2024-03-23T01:08:31;21.38;;;8.73;;
64199;SDS011;50516;52.272;5.136;2024-03-23T01:10:57;25.85;;;7.72;;
64199;SDS011;50516;52.272;5.136;2024-03-23T01:13:26;21.00;;;7.30;;
64199;SDS011;50516;52.272;5.136;2024-03-23T01:15:53;23.95;;;8.18;;
64199;SDS011;50516;52.272;5.136;2024-03-23T01:18:20;24.80;;;7.32;;
64199;SDS011;50516;52.272;5.136;2024-03-23T01:20:46;20.65;;;7.35;;
64199;SDS011;50516;52.272;5.136;2024-03-23T01:23:13;33.08;;;8.10;;
64199;SDS011;50516;52.272;5.136;2024-03-23T01:25:39;28.42;;;7.93;;
64199;SDS011;50516;52.272;5.136;2024-03-23T01:28:04;20.95;;;7.75;;
64199;SDS011;50516;52.272;5.136;2024-03-23T01:30:31;18.60;;;7.25;;
64199;SDS011;50516;52.272;5.136;2024-03-23T01:32:56;21.10;;;7.00;;
64199;SDS011;50516;52.272;5.136;2024-03-23T01:35:22;25.58;;;7.35;;
64199;SDS011;50516;52.272;5.136;2024-03-23T01:37:48;22.30;;;7.65;;
64199;SDS011;50516;52.272;5.136;2024-03-23T01:40:13;27.55;;;7.80;;
64199;SDS011;50516;52.272;5.136;2024-03-23T01:42:38;25.90;;;8.30;;
64199;SDS011;50516;52.272;5.136;2024-03-23T01:45:07;19.15;;;6.88;;
64199;SDS011;50516;52.272;5.136;2024-03-23T01:47:34;28.27;;;7.65;;
64199;SDS011;50516;52.272;5.136;2024-03-23T01:49:59;27.65;;;7.95;;
64199;SDS011;50516;52.272;5.136;2024-03-23T01:52:26;22.38;;;6.72;;
64199;SDS011;50516;52.272;5.136;2024-03-23T01:54:52;31.63;;;9.18;;
64199;SDS011;50516;52.272;5.136;2024-03-23T01:57:18;23.38;;;7.72;;
64199;SDS011;50516;52.272;5.136;2024-03-23T01:59:45;26.85;;;7.32;;
64199;SDS011;50516;52.272;5.136;2024-03-23T02:02:10;23.23;;;8.45;;
64199;SDS011;50516;52.272;5.136;2024-03-23T02:04:36;23.60;;;7.35;;
64199;SDS011;50516;52.272;5.136;2024-03-23T02:07:01;23.35;;;6.90;;
64199;SDS011;50516;52.272;5.136;2024-03-23T02:09:26;23.73;;;6.78;;
64199;SDS011;50516;52.272;5.136;2024-03-23T02:11:51;26.67;;;7.30;;
64199;SDS011;50516;52.272;5.136;2024-03-23T02:14:17;22.58;;;7.97;;
64199;SDS011;50516;52.272;5.136;2024-03-23T02:16:42;23.67;;;8.38;;
64199;SDS011;50516;52.272;5.136;2024-03-23T02:19:08;15.32;;;6.93;;
64199;SDS011;50516;52.272;5.136;2024-03-23T02:21:33;20.77;;;6.93;;
64199;SDS011;50516;52.272;5.136;2024-03-23T02:23:59;23.13;;;7.25;;
64199;SDS011;50516;52.272;5.136;2024-03-23T02:26:25;27.90;;;7.10;;
64199;SDS011;50516;52.272;5.136;2024-03-23T02:28:50;32.17;;;6.65;;
64199;SDS011;50516;52.272;5.136;2024-03-23T02:31:16;19.25;;;6.10;;
64199;SDS011;50516;52.272;5.136;2024-03-23T02:33:41;20.10;;;5.88;;
64199;SDS011;50516;52.272;5.136;2024-03-23T02:36:07;27.10;;;6.35;;
64199;SDS011;50516;52.272;5.136;2024-03-23T02:38:32;23.40;;;6.13;;
64199;SDS011;50516;52.272;5.136;2024-03-23T02:41:02;22.15;;;5.30;;
64199;SDS011;50516;52.272;5.136;2024-03-23T02:43:28;17.52;;;4.75;;
64199;SDS011;50516;52.272;5.136;2024-03-23T02:45:53;21.70;;;5.85;;
64199;SDS011;50516;52.272;5.136;2024-03-23T02:48:19;20.48;;;5.40;;
64199;SDS011;50516;52.272;5.136;2024-03-23T02:50:44;20.00;;;4.88;;
64199;SDS011;50516;52.272;5.136;2024-03-23T02:53:09;22.27;;;5.00;;
64199;SDS011;50516;52.272;5.136;2024-03-23T02:55:35;18.42;;;5.20;;
64199;SDS011;50516;52.272;5.136;2024-03-23T02:58:00;15.63;;;4.93;;
64199;SDS011;50516;52.272;5.136;2024-03-23T03:00:27;22.40;;;3.92;;
64199;SDS011;50516;52.272;5.136;2024-03-23T03:02:52;25.92;;;7.18;;
64199;SDS011;50516;52.272;5.136;2024-03-23T03:05:18;14.00;;;4.90;;
64199;SDS011;50516;52.272;5.136;2024-03-23T03:07:43;16.40;;;4.43;;
64199;SDS011;50516;52.272;5.136;2024-03-23T03:10:08;18.45;;;5.43;;
64199;SDS011;50516;52.272;5.136;2024-03-23T03:12:36;21.50;;;6.03;;
64199;SDS011;50516;52.272;5.136;2024-03-23T03:15:02;18.60;;;4.68;;
64199;SDS011;50516;52.272;5.136;2024-03-23T03:17:28;19.73;;;4.45;;
64199;SDS011;50516;52.272;5.136;2024-03-23T03:19:53;15.68;;;4.15;;
64199;SDS011;50516;52.272;5.136;2024-03-23T03:22:20;18.98;;;5.47;;
64199;SDS011;50516;52.272;5.136;2024-03-23T03:24:46;14.30;;;4.25;;
64199;SDS011;50516;52.272;5.136;2024-03-23T03:27:11;16.88;;;5.00;;
64199;SDS011;50516;52.272;5.136;2024-03-23T03:29:36;15.80;;;5.05;;
64199;SDS011;50516;52.272;5.136;2024-03-23T03:32:02;22.98;;;5.50;;
64199;SDS011;50516;52.272;5.136;2024-03-23T03:34:28;15.00;;;4.55;;
64199;SDS011;50516;52.272;5.136;2024-03-23T03:36:54;14.18;;;4.18;;
64199;SDS011;50516;52.272;5.136;2024-03-23T03:39:19;11.68;;;4.38;;
64199;SDS011;50516;52.272;5.136;2024-03-23T03:41:44;14.55;;;4.07;;
64199;SDS011;50516;52.272;5.136;2024-03-23T03:44:10;19.92;;;4.65;;
64199;SDS011;50516;52.272;5.136;2024-03-23T03:46:35;16.33;;;3.92;;
64199;SDS011;50516;52.272;5.136;2024-03-23T03:49:00;14.90;;;3.83;;
64199;SDS011;50516;52.272;5.136;2024-03-23T03:51:26;15.13;;;3.50;;
64199;SDS011;50516;52.272;5.136;2024-03-23T03:53:51;16.42;;;3.70;;
64199;SDS011;50516;52.272;5.136;2024-03-23T03:56:16;13.48;;;3.25;;
64199;SDS011;50516;52.272;5.136;2024-03-23T03:58:41;13.35;;;3.58;;
64199;SDS011;50516;52.272;5.136;2024-03-23T04:01:07;16.90;;;4.05;;
64199;SDS011;50516;52.272;5.136;2024-03-23T04:03:32;16.88;;;4.45;;
64199;SDS011;50516;52.272;5.136;2024-03-23T04:05:57;16.00;;;4.05;;
64199;SDS011;50516;52.272;5.136;2024-03-23T04:08:23;13.32;;;3.30;;
64199;SDS011;50516;52.272;5.136;2024-03-23T04:10:49;16.77;;;4.20;;
64199;SDS011;50516;52.272;5.136;2024-03-23T04:13:14;15.13;;;3.75;;
64199;SDS011;50516;52.272;5.136;2024-03-23T04:15:39;13.43;;;3.95;;
64199;SDS011;50516;52.272;5.136;2024-03-23T04:18:05;17.15;;;3.45;;
64199;SDS011;50516;52.272;5.136;2024-03-23T04:20:31;15.35;;;4.05;;
64199;SDS011;50516;52.272;5.136;2024-03-23T04:22:57;12.52;;;3.85;;
64199;SDS011;50516;52.272;5.136;2024-03-23T04:25:22;11.93;;;3.08;;
64199;SDS011;50516;52.272;5.136;2024-03-23T04:27:48;14.20;;;3.85;;
64199;SDS011;50516;52.272;5.136;2024-03-23T04:30:13;13.55;;;3.40;;
64199;SDS011;50516;52.272;5.136;2024-03-23T04:32:39;11.65;;;2.88;;
64199;SDS011;50516;52.272;5.136;2024-03-23T04:35:05;15.23;;;3.95;;
64199;SDS011;50516;52.272;5.136;2024-03-23T04:37:31;15.93;;;3.33;;
64199;SDS011;50516;52.272;5.136;2024-03-23T04:40:00;15.13;;;4.25;;
64199;SDS011;50516;52.272;5.136;2024-03-23T04:42:29;8.85;;;3.15;;
64199;SDS011;50516;52.272;5.136;2024-03-23T04:44:55;13.98;;;3.88;;
64199;SDS011;50516;52.272;5.136;2024-03-23T04:47:20;11.63;;;3.22;;
64199;SDS011;50516;52.272;5.136;2024-03-23T04:49:45;13.55;;;3.83;;
64199;SDS011;50516;52.272;5.136;2024-03-23T04:52:11;10.13;;;3.22;;
64199;SDS011;50516;52.272;5.136;2024-03-23T04:54:37;13.52;;;3.30;;
64199;SDS011;50516;52.272;5.136;2024-03-23T04:57:02;9.95;;;3.03;;
64199;SDS011;50516;52.272;5.136;2024-03-23T04:59:28;10.93;;;3.75;;
64199;SDS011;50516;52.272;5.136;2024-03-23T05:01:53;17.15;;;3.55;;
64199;SDS011;50516;52.272;5.136;2024-03-23T05:04:18;11.15;;;3.17;;
64199;SDS011;50516;52.272;5.136;2024-03-23T05:06:44;14.75;;;3.35;;
64199;SDS011;50516;52.272;5.136;2024-03-23T05:09:09;8.95;;;3.17;;
64199;SDS011;50516;52.272;5.136;2024-03-23T05:11:37;23.42;;;3.35;;
64199;SDS011;50516;52.272;5.136;2024-03-23T05:14:03;10.52;;;3.28;;
64199;SDS011;50516;52.272;5.136;2024-03-23T05:16:28;13.73;;;3.00;;
64199;SDS011;50516;52.272;5.136;2024-03-23T05:18:54;7.95;;;2.90;;
64199;SDS011;50516;52.272;5.136;2024-03-23T05:21:19;13.82;;;3.90;;
64199;SDS011;50516;52.272;5.136;2024-03-23T05:23:44;15.05;;;3.78;;
64199;SDS011;50516;52.272;5.136;2024-03-23T05:26:10;17.08;;;3.65;;
64199;SDS011;50516;52.272;5.136;2024-03-23T05:28:35;9.73;;;4.18;;
64199;SDS011;50516;52.272;5.136;2024-03-23T05:31:01;14.30;;;4.05;;
64199;SDS011;50516;52.272;5.136;2024-03-23T05:33:26;8.43;;;3.17;;
64199;SDS011;50516;52.272;5.136;2024-03-23T05:35:58;11.60;;;3.10;;
64199;SDS011;50516;52.272;5.136;2024-03-23T05:38:25;16.50;;;3.60;;
64199;SDS011;50516;52.272;5.136;2024-03-23T05:40:54;8.75;;;2.83;;
64199;SDS011;50516;52.272;5.136;2024-03-23T05:43:21;12.70;;;3.72;;
64199;SDS011;50516;52.272;5.136;2024-03-23T05:45:52;11.32;;;3.28;;
64199;SDS011;50516;52.272;5.136;2024-03-23T05:48:18;7.00;;;3.55;;
64199;SDS011;50516;52.272;5.136;2024-03-23T05:50:44;11.52;;;3.33;;
64199;SDS011;50516;52.272;5.136;2024-03-23T05:53:09;15.00;;;3.25;;
64199;SDS011;50516;52.272;5.136;2024-03-23T05:55:34;13.27;;;3.13;;
64199;SDS011;50516;52.272;5.136;2024-03-23T05:58:00;15.02;;;3.55;;
64199;SDS011;50516;52.272;5.136;2024-03-23T06:00:25;14.05;;;3.63;;
64199;SDS011;50516;52.272;5.136;2024-03-23T06:02:51;13.70;;;3.97;;
64199;SDS011;50516;52.272;5.136;2024-03-23T06:05:16;9.48;;;3.58;;
64199;SDS011;50516;52.272;5.136;2024-03-23T06:07:42;10.80;;;3.00;;
64199;SDS011;50516;52.272;5.136;2024-03-23T06:10:07;14.75;;;3.92;;
64199;SDS011;50516;52.272;5.136;2024-03-23T06:12:33;7.93;;;3.03;;
64199;SDS011;50516;52.272;5.136;2024-03-23T06:14:58;13.25;;;3.00;;
64199;SDS011;50516;52.272;5.136;2024-03-23T06:17:23;15.85;;;3.38;;
64199;SDS011;50516;52.272;5.136;2024-03-23T06:19:48;7.65;;;3.72;;
64199;SDS011;50516;52.272;5.136;2024-03-23T06:22:14;10.27;;;2.85;;
64199;SDS011;50516;52.272;5.136;2024-03-23T06:24:39;17.63;;;4.20;;
64199;SDS011;50516;52.272;5.136;2024-03-23T06:27:05;16.73;;;3.75;;
64199;SDS011;50516;52.272;5.136;2024-03-23T06:29:30;9.32;;;3.15;;
64199;SDS011;50516;52.272;5.136;2024-03-23T06:31:55;17.33;;;4.38;;
64199;SDS011;50516;52.272;5.136;2024-03-23T06:34:21;16.60;;;3.60;;
64199;SDS011;50516;52.272;5.136;2024-03-23T06:36:47;13.40;;;3.40;;
64199;SDS011;50516;52.272;5.136;2024-03-23T06:39:14;12.20;;;3.50;;
64199;SDS011;50516;52.272;5.136;2024-03-23T06:41:41;22.75;;;5.35;;
64199;SDS011;50516;52.272;5.136;2024-03-23T06:44:07;14.63;;;4.78;;
64199;SDS011;50516;52.272;5.136;2024-03-23T06:46:32;17.73;;;3.88;;
64199;SDS011;50516;52.272;5.136;2024-03-23T06:48:57;11.68;;;3.92;;
64199;SDS011;50516;52.272;5.136;2024-03-23T06:51:22;14.23;;;5.35;;
64199;SDS011;50516;52.272;5.136;2024-03-23T06:53:49;17.55;;;4.60;;
64199;SDS011;50516;52.272;5.136;2024-03-23T06:56:14;13.75;;;4.40;;
64199;SDS011;50516;52.272;5.136;2024-03-23T06:58:40;14.00;;;5.18;;
64199;SDS011;50516;52.272;5.136;2024-03-23T07:01:05;14.70;;;5.38;;
64199;SDS011;50516;52.272;5.136;2024-03-23T07:03:30;13.02;;;4.65;;
64199;SDS011;50516;52.272;5.136;2024-03-23T07:05:59;22.48;;;6.63;;
64199;SDS011;50516;52.272;5.136;2024-03-23T07:08:24;12.38;;;4.50;;
64199;SDS011;50516;52.272;5.136;2024-03-23T07:10:49;13.20;;;4.03;;
64199;SDS011;50516;52.272;5.136;2024-03-23T07:13:14;18.20;;;4.32;;
64199;SDS011;50516;52.272;5.136;2024-03-23T07:15:40;14.10;;;4.32;;
64199;SDS011;50516;52.272;5.136;2024-03-23T07:18:05;19.27;;;4.28;;
64199;SDS011;50516;52.272;5.136;2024-03-23T07:20:31;20.00;;;5.70;;
64199;SDS011;50516;52.272;5.136;2024-03-23T07:22:56;19.58;;;4.97;;
64199;SDS011;50516;52.272;5.136;2024-03-23T07:25:22;13.52;;;4.68;;
64199;SDS011;50516;52.272;5.136;2024-03-23T07:27:48;13.63;;;3.28;;
64199;SDS011;50516;52.272;5.136;2024-03-23T07:30:14;13.15;;;3.72;;
64199;SDS011;50516;52.272;5.136;2024-03-23T07:32:39;17.92;;;4.78;;
64199;SDS011;50516;52.272;5.136;2024-03-23T07:35:04;17.95;;;4.32;;
64199;SDS011;50516;52.272;5.136;2024-03-23T07:37:30;23.05;;;4.63;;
64199;SDS011;50516;52.272;5.136;2024-03-23T07:39:56;18.10;;;4.13;;
64199;SDS011;50516;52.272;5.136;2024-03-23T07:42:22;16.00;;;5.00;;
64199;SDS011;50516;52.272;5.136;2024-03-23T07:44:48;17.50;;;3.42;;
64199;SDS011;50516;52.272;5.136;2024-03-23T07:47:14;14.13;;;4.07;;
64199;SDS011;50516;52.272;5.136;2024-03-23T07:49:39;14.32;;;3.83;;
64199;SDS011;50516;52.272;5.136;2024-03-23T07:52:04;15.82;;;3.75;;
64199;SDS011;50516;52.272;5.136;2024-03-23T07:54:30;14.70;;;4.20;;
64199;SDS011;50516;52.272;5.136;2024-03-23T07:56:55;11.93;;;3.60;;
64199;SDS011;50516;52.272;5.136;2024-03-23T07:59:20;18.10;;;3.47;;
64199;SDS011;50516;52.272;5.136;2024-03-23T08:01:46;13.73;;;4.25;;
64199;SDS011;50516;52.272;5.136;2024-03-23T08:04:11;15.40;;;3.30;;
64199;SDS011;50516;52.272;5.136;2024-03-23T08:06:36;12.27;;;3.42;;
64199;SDS011;50516;52.272;5.136;2024-03-23T08:09:03;8.93;;;2.88;;
64199;SDS011;50516;52.272;5.136;2024-03-23T08:11:28;9.70;;;3.42;;
64199;SDS011;50516;52.272;5.136;2024-03-23T08:13:55;15.82;;;3.38;;
64199;SDS011;50516;52.272;5.136;2024-03-23T08:16:21;14.98;;;3.05;;
64199;SDS011;50516;52.272;5.136;2024-03-23T08:18:46;16.10;;;3.83;;
64199;SDS011;50516;52.272;5.136;2024-03-23T08:21:12;19.83;;;4.53;;
64199;SDS011;50516;52.272;5.136;2024-03-23T08:23:37;14.77;;;4.03;;
64199;SDS011;50516;52.272;5.136;2024-03-23T08:26:05;13.88;;;3.53;;
64199;SDS011;50516;52.272;5.136;2024-03-23T08:28:34;20.08;;;3.33;;
64199;SDS011;50516;52.272;5.136;2024-03-23T08:31:01;20.23;;;3.58;;
64199;SDS011;50516;52.272;5.136;2024-03-23T08:33:28;11.50;;;3.22;;
64199;SDS011;50516;52.272;5.136;2024-03-23T08:36:26;17.08;;;3.63;;
64199;SDS011;50516;52.272;5.136;2024-03-23T08:38:45;15.07;;;3.38;;
64199;SDS011;50516;52.272;5.136;2024-03-23T08:41:11;12.73;;;3.40;;
64199;SDS011;50516;52.272;5.136;2024-03-23T08:43:37;12.13;;;3.38;;
64199;SDS011;50516;52.272;5.136;2024-03-23T08:46:07;12.10;;;3.55;;
64199;SDS011;50516;52.272;5.136;2024-03-23T08:48:40;14.32;;;3.33;;
64199;SDS011;50516;52.272;5.136;2024-03-23T08:51:14;14.75;;;3.67;;
64199;SDS011;50516;52.272;5.136;2024-03-23T08:53:41;16.27;;;4.30;;
64199;SDS011;50516;52.272;5.136;2024-03-23T08:56:08;16.13;;;3.33;;
64199;SDS011;50516;52.272;5.136;2024-03-23T08:58:35;11.73;;;3.15;;
64199;SDS011;50516;52.272;5.136;2024-03-23T09:01:05;14.93;;;3.25;;
64199;SDS011;50516;52.272;5.136;2024-03-23T09:03:32;12.80;;;3.40;;
64199;SDS011;50516;52.272;5.136;2024-03-23T09:05:57;9.20;;;2.65;;
64199;SDS011;50516;52.272;5.136;2024-03-23T09:08:23;13.98;;;3.63;;
64199;SDS011;50516;52.272;5.136;2024-03-23T09:10:49;14.50;;;3.10;;
64199;SDS011;50516;52.272;5.136;2024-03-23T09:13:14;15.48;;;3.65;;
64199;SDS011;50516;52.272;5.136;2024-03-23T09:15:51;16.67;;;3.65;;
64199;SDS011;50516;52.272;5.136;2024-03-23T09:18:18;10.35;;;3.40;;
64199;SDS011;50516;52.272;5.136;2024-03-23T09:20:44;11.98;;;3.05;;
64199;SDS011;50516;52.272;5.136;2024-03-23T09:23:09;14.80;;;3.55;;
64199;SDS011;50516;52.272;5.136;2024-03-23T09:25:38;13.40;;;3.28;;
64199;SDS011;50516;52.272;5.136;2024-03-23T09:28:04;13.68;;;3.58;;
64199;SDS011;50516;52.272;5.136;2024-03-23T09:30:32;17.13;;;4.05;;
64199;SDS011;50516;52.272;5.136;2024-03-23T09:32:58;10.85;;;3.53;;
64199;SDS011;50516;52.272;5.136;2024-03-23T09:35:23;16.63;;;3.28;;
64199;SDS011;50516;52.272;5.136;2024-03-23T09:37:49;11.73;;;3.40;;
64199;SDS011;50516;52.272;5.136;2024-03-23T09:40:14;12.70;;;3.45;;
64199;SDS011;50516;52.272;5.136;2024-03-23T09:42:39;16.92;;;3.72;;
64199;SDS011;50516;52.272;5.136;2024-03-23T09:45:05;9.90;;;3.85;;
64199;SDS011;50516;52.272;5.136;2024-03-23T09:47:36;24.48;;;4.63;;
64199;SDS011;50516;52.272;5.136;2024-03-23T09:50:02;17.27;;;4.32;;
64199;SDS011;50516;52.272;5.136;2024-03-23T09:52:29;10.00;;;3.50;;
64199;SDS011;50516;52.272;5.136;2024-03-23T09:54:55;15.40;;;4.05;;
64199;SDS011;50516;52.272;5.136;2024-03-23T09:57:20;14.82;;;3.95;;
64199;SDS011;50516;52.272;5.136;2024-03-23T09:59:45;16.10;;;3.50;;
64199;SDS011;50516;52.272;5.136;2024-03-23T10:02:11;13.75;;;4.60;;
64199;SDS011;50516;52.272;5.136;2024-03-23T10:04:42;14.68;;;3.38;;
64199;SDS011;50516;52.272;5.136;2024-03-23T10:07:11;11.63;;;3.58;;
64199;SDS011;50516;52.272;5.136;2024-03-23T10:09:38;14.10;;;3.38;;
64199;SDS011;50516;52.272;5.136;2024-03-23T10:12:10;16.30;;;3.50;;
64199;SDS011;50516;52.272;5.136;2024-03-23T10:14:38;16.85;;;3.47;;
64199;SDS011;50516;52.272;5.136;2024-03-23T10:17:20;19.25;;;5.82;;
64199;SDS011;50516;52.272;5.136;2024-03-23T10:19:51;11.32;;;3.22;;
64199;SDS011;50516;52.272;5.136;2024-03-23T10:22:18;11.40;;;3.10;;
64199;SDS011;50516;52.272;5.136;2024-03-23T10:24:43;16.00;;;3.65;;
64199;SDS011;50516;52.272;5.136;2024-03-23T10:27:09;17.48;;;3.78;;
64199;SDS011;50516;52.272;5.136;2024-03-23T10:29:34;13.13;;;3.50;;
64199;SDS011;50516;52.272;5.136;2024-03-23T10:32:09;19.23;;;4.78;;
64199;SDS011;50516;52.272;5.136;2024-03-23T10:34:36;15.75;;;3.42;;
64199;SDS011;50516;52.272;5.136;2024-03-23T10:37:02;12.20;;;3.83;;
64199;SDS011;50516;52.272;5.136;2024-03-23T10:39:32;13.05;;;3.42;;
64199;SDS011;50516;52.272;5.136;2024-03-23T10:42:02;10.65;;;3.00;;
64199;SDS011;50516;52.272;5.136;2024-03-23T10:44:28;13.73;;;4.10;;
64199;SDS011;50516;52.272;5.136;2024-03-23T10:46:55;15.82;;;3.97;;
64199;SDS011;50516;52.272;5.136;2024-03-23T10:49:34;8.10;;;2.97;;
64199;SDS011;50516;52.272;5.136;2024-03-23T10:54:26;12.43;;;2.88;;
64199;SDS011;50516;52.272;5.136;2024-03-23T10:57:03;16.17;;;5.35;;
64199;SDS011;50516;52.272;5.136;2024-03-23T10:59:29;14.23;;;3.30;;
64199;SDS011;50516;52.272;5.136;2024-03-23T11:01:59;14.75;;;3.80;;
64199;SDS011;50516;52.272;5.136;2024-03-23T11:04:38;17.77;;;4.15;;
64199;SDS011;50516;52.272;5.136;2024-03-23T11:07:30;13.80;;;4.20;;
64199;SDS011;50516;52.272;5.136;2024-03-23T11:09:56;11.95;;;2.80;;
64199;SDS011;50516;52.272;5.136;2024-03-23T11:14:48;11.82;;;3.53;;
64199;SDS011;50516;52.272;5.136;2024-03-23T11:17:22;16.67;;;4.20;;
64199;SDS011;50516;52.272;5.136;2024-03-23T11:20:03;10.10;;;2.92;;
64199;SDS011;50516;52.272;5.136;2024-03-23T11:25:02;23.08;;;4.82;;
64199;SDS011;50516;52.272;5.136;2024-03-23T11:27:28;11.25;;;3.67;;
64199;SDS011;50516;52.272;5.136;2024-03-23T11:29:53;18.88;;;3.38;;
64199;SDS011;50516;52.272;5.136;2024-03-23T11:32:19;16.10;;;3.85;;
64199;SDS011;50516;52.272;5.136;2024-03-23T11:34:44;11.98;;;3.75;;
64199;SDS011;50516;52.272;5.136;2024-03-23T11:37:09;13.15;;;3.88;;
64199;SDS011;50516;52.272;5.136;2024-03-23T11:39:34;14.57;;;4.68;;
64199;SDS011;50516;52.272;5.136;2024-03-23T11:42:00;15.90;;;3.38;;
64199;SDS011;50516;52.272;5.136;2024-03-23T11:44:26;16.95;;;4.47;;
64199;SDS011;50516;52.272;5.136;2024-03-23T11:46:51;19.50;;;4.32;;
64199;SDS011;50516;52.272;5.136;2024-03-23T11:49:27;17.00;;;3.65;;
64199;SDS011;50516;52.272;5.136;2024-03-23T11:51:54;10.80;;;3.60;;
64199;SDS011;50516;52.272;5.136;2024-03-23T11:54:21;17.13;;;4.38;;
64199;SDS011;50516;52.272;5.136;2024-03-23T11:56:57;12.77;;;3.20;;
64199;SDS011;50516;52.272;5.136;2024-03-23T12:02:01;17.40;;;3.92;;
64199;SDS011;50516;52.272;5.136;2024-03-23T12:04:35;10.55;;;2.97;;
64199;SDS011;50516;52.272;5.136;2024-03-23T12:07:11;10.93;;;3.88;;
64199;SDS011;50516;52.272;5.136;2024-03-23T12:09:37;10.30;;;3.08;;
64199;SDS011;50516;52.272;5.136;2024-03-23T12:12:10;13.75;;;3.25;;
64199;SDS011;50516;52.272;5.136;2024-03-23T12:14:36;12.40;;;3.30;;
64199;SDS011;50516;52.272;5.136;2024-03-23T12:19:37;9.50;;;3.38;;
64199;SDS011;50516;52.272;5.136;2024-03-23T12:22:06;17.45;;;4.57;;
64199;SDS011;50516;52.272;5.136;2024-03-23T12:24:33;11.40;;;3.08;;
64199;SDS011;50516;52.272;5.136;2024-03-23T12:26:59;12.07;;;2.95;;
64199;SDS011;50516;52.272;5.136;2024-03-23T12:29:26;17.60;;;3.33;;
64199;SDS011;50516;52.272;5.136;2024-03-23T12:31:53;13.50;;;3.88;;
64199;SDS011;50516;52.272;5.136;2024-03-23T12:34:18;11.68;;;3.35;;
64199;SDS011;50516;52.272;5.136;2024-03-23T12:36:43;12.48;;;3.25;;
64199;SDS011;50516;52.272;5.136;2024-03-23T12:39:09;7.70;;;2.75;;
64199;SDS011;50516;52.272;5.136;2024-03-23T12:41:34;10.82;;;2.72;;
64199;SDS011;50516;52.272;5.136;2024-03-23T12:43:59;14.23;;;3.13;;
64199;SDS011;50516;52.272;5.136;2024-03-23T12:46:25;12.85;;;2.78;;
64199;SDS011;50516;52.272;5.136;2024-03-23T12:48:50;13.13;;;3.08;;
64199;SDS011;50516;52.272;5.136;2024-03-23T12:51:15;8.27;;;2.70;;
64199;SDS011;50516;52.272;5.136;2024-03-23T12:53:40;12.48;;;3.20;;
64199;SDS011;50516;52.272;5.136;2024-03-23T12:56:06;8.38;;;2.63;;
64199;SDS011;50516;52.272;5.136;2024-03-23T12:58:31;8.90;;;2.80;;
64199;SDS011;50516;52.272;5.136;2024-03-23T13:00:57;10.60;;;3.03;;
64199;SDS011;50516;52.272;5.136;2024-03-23T13:03:23;14.50;;;3.35;;
64199;SDS011;50516;52.272;5.136;2024-03-23T13:05:51;14.70;;;3.28;;
64199;SDS011;50516;52.272;5.136;2024-03-23T13:08:17;13.60;;;3.10;;
64199;SDS011;50516;52.272;5.136;2024-03-23T13:10:42;13.90;;;3.42;;
64199;SDS011;50516;52.272;5.136;2024-03-23T13:13:08;17.83;;;3.60;;
64199;SDS011;50516;52.272;5.136;2024-03-23T13:15:33;9.82;;;2.88;;
64199;SDS011;50516;52.272;5.136;2024-03-23T13:17:58;14.20;;;2.75;;
64199;SDS011;50516;52.272;5.136;2024-03-23T13:20:24;15.77;;;3.25;;
64199;SDS011;50516;52.272;5.136;2024-03-23T13:22:49;10.48;;;2.92;;
64199;SDS011;50516;52.272;5.136;2024-03-23T13:25:16;6.68;;;2.85;;
64199;SDS011;50516;52.272;5.136;2024-03-23T13:27:43;9.45;;;2.65;;
64199;SDS011;50516;52.272;5.136;2024-03-23T13:30:09;10.90;;;3.70;;
64199;SDS011;50516;52.272;5.136;2024-03-23T13:32:34;10.45;;;2.08;;
64199;SDS011;50516;52.272;5.136;2024-03-23T13:35:00;8.95;;;2.17;;
64199;SDS011;50516;52.272;5.136;2024-03-23T13:37:25;8.02;;;2.25;;
64199;SDS011;50516;52.272;5.136;2024-03-23T13:39:51;10.65;;;2.50;;
64199;SDS011;50516;52.272;5.136;2024-03-23T13:42:16;14.88;;;3.15;;
64199;SDS011;50516;52.272;5.136;2024-03-23T13:44:41;11.38;;;2.63;;
64199;SDS011;50516;52.272;5.136;2024-03-23T13:47:07;12.10;;;3.20;;
64199;SDS011;50516;52.272;5.136;2024-03-23T13:49:33;10.30;;;3.00;;
64199;SDS011;50516;52.272;5.136;2024-03-23T13:51:58;15.98;;;4.20;;
64199;SDS011;50516;52.272;5.136;2024-03-23T13:54:25;12.35;;;3.60;;
64199;SDS011;50516;52.272;5.136;2024-03-23T13:56:51;10.50;;;3.58;;
64199;SDS011;50516;52.272;5.136;2024-03-23T13:59:17;11.75;;;2.38;;
64199;SDS011;50516;52.272;5.136;2024-03-23T14:01:43;9.27;;;3.05;;
64199;SDS011;50516;52.272;5.136;2024-03-23T14:04:10;12.00;;;3.05;;
64199;SDS011;50516;52.272;5.136;2024-03-23T14:06:36;11.73;;;2.85;;
64199;SDS011;50516;52.272;5.136;2024-03-23T14:09:02;12.52;;;3.70;;
64199;SDS011;50516;52.272;5.136;2024-03-23T14:11:28;11.40;;;3.03;;
64199;SDS011;50516;52.272;5.136;2024-03-23T14:13:54;12.27;;;3.08;;
64199;SDS011;50516;52.272;5.136;2024-03-23T14:16:19;8.45;;;3.38;;
64199;SDS011;50516;52.272;5.136;2024-03-23T14:18:48;11.65;;;3.00;;
64199;SDS011;50516;52.272;5.136;2024-03-23T14:21:13;12.73;;;2.88;;
64199;SDS011;50516;52.272;5.136;2024-03-23T14:23:38;10.10;;;2.47;;
64199;SDS011;50516;52.272;5.136;2024-03-23T14:26:05;10.45;;;2.33;;
64199;SDS011;50516;52.272;5.136;2024-03-23T14:28:31;10.82;;;2.80;;
64199;SDS011;50516;52.272;5.136;2024-03-23T14:30:57;7.07;;;2.08;;
64199;SDS011;50516;52.272;5.136;2024-03-23T14:33:22;7.10;;;2.35;;
64199;SDS011;50516;52.272;5.136;2024-03-23T14:35:52;13.00;;;4.10;;
64199;SDS011;50516;52.272;5.136;2024-03-23T14:38:18;11.55;;;2.80;;
64199;SDS011;50516;52.272;5.136;2024-03-23T14:40:44;13.25;;;3.05;;
64199;SDS011;50516;52.272;5.136;2024-03-23T14:43:10;12.40;;;2.78;;
64199;SDS011;50516;52.272;5.136;2024-03-23T14:45:35;12.52;;;2.78;;
64199;SDS011;50516;52.272;5.136;2024-03-23T14:48:01;10.82;;;2.80;;
64199;SDS011;50516;52.272;5.136;2024-03-23T14:50:27;8.98;;;2.47;;
64199;SDS011;50516;52.272;5.136;2024-03-23T14:52:52;15.68;;;5.07;;
64199;SDS011;50516;52.272;5.136;2024-03-23T14:55:18;18.92;;;4.60;;
64199;SDS011;50516;52.272;5.136;2024-03-23T14:57:44;11.95;;;2.88;;
64199;SDS011;50516;52.272;5.136;2024-03-23T15:00:10;14.60;;;3.78;;
64199;SDS011;50516;52.272;5.136;2024-03-23T15:02:39;9.65;;;2.92;;
64199;SDS011;50516;52.272;5.136;2024-03-23T15:05:05;11.45;;;4.00;;
64199;SDS011;50516;52.272;5.136;2024-03-23T15:07:34;12.63;;;2.75;;
64199;SDS011;50516;52.272;5.136;2024-03-23T15:10:01;10.15;;;2.70;;
64199;SDS011;50516;52.272;5.136;2024-03-23T15:12:26;16.98;;;2.95;;
64199;SDS011;50516;52.272;5.136;2024-03-23T15:14:52;11.85;;;3.22;;
64199;SDS011;50516;52.272;5.136;2024-03-23T15:17:17;13.55;;;3.40;;
64199;SDS011;50516;52.272;5.136;2024-03-23T15:19:43;10.02;;;2.83;;
64199;SDS011;50516;52.272;5.136;2024-03-23T15:22:09;18.52;;;3.50;;
64199;SDS011;50516;52.272;5.136;2024-03-23T15:24:35;7.45;;;2.45;;
64199;SDS011;50516;52.272;5.136;2024-03-23T15:27:01;17.95;;;3.28;;
64199;SDS011;50516;52.272;5.136;2024-03-23T15:29:27;11.23;;;2.40;;
64199;SDS011;50516;52.272;5.136;2024-03-23T15:31:52;12.73;;;3.55;;
64199;SDS011;50516;52.272;5.136;2024-03-23T15:34:21;10.52;;;3.70;;
64199;SDS011;50516;52.272;5.136;2024-03-23T15:36:49;12.75;;;3.15;;